createdAt,value
2022-11-30T00:00:36.135Z,9.90
2022-11-30T00:03:02.724Z,7.43
2022-11-30T00:05:29.127Z,6.68
2022-11-30T00:07:55.616Z,12.80
2022-11-30T00:10:22.623Z,7.57
2022-11-30T00:12:49.252Z,10.55
2022-11-30T00:15:17.432Z,12.98
2022-11-30T00:17:44.924Z,9.07
2022-11-30T00:20:12.084Z,6.43
2022-11-30T00:22:38.524Z,8.93
2022-11-30T00:25:05.087Z,12.38
2022-11-30T00:27:32.206Z,13.75
2022-11-30T00:29:58.734Z,13.23
2022-11-30T00:32:25.561Z,14.35
2022-11-30T00:34:52.097Z,10.88
2022-11-30T00:37:18.763Z,10.25
2022-11-30T00:39:45.139Z,9.60
2022-11-30T00:42:11.606Z,9.93
2022-11-30T00:44:38.003Z,9.88
2022-11-30T00:47:04.681Z,7.20
2022-11-30T00:49:31.099Z,5.05
2022-11-30T00:51:57.438Z,4.15
2022-11-30T00:54:23.916Z,2.72
2022-11-30T00:56:50.228Z,4.10
2022-11-30T00:59:16.573Z,4.03
2022-11-30T01:01:43.028Z,3.05
2022-11-30T01:04:09.449Z,6.07
2022-11-30T01:06:36.785Z,6.43
2022-11-30T01:09:03.507Z,6.40
2022-11-30T01:11:30.993Z,4.40
2022-11-30T01:13:58.405Z,2.58
2022-11-30T01:16:26.460Z,4.43
2022-11-30T01:18:52.913Z,1.98
2022-11-30T01:21:20.815Z,3.05
2022-11-30T01:23:47.366Z,3.20
2022-11-30T01:26:14.251Z,5.78
2022-11-30T01:28:46.518Z,3.13
2022-11-30T01:31:14.183Z,5.20
2022-11-30T01:33:40.890Z,5.43
2022-11-30T01:36:11.982Z,9.85
2022-11-30T01:38:39.992Z,6.33
2022-11-30T01:41:07.243Z,6.72
2022-11-30T01:44:00.013Z,11.93
2022-11-30T01:46:29.037Z,16.33
2022-11-30T01:49:00.692Z,13.15
2022-11-30T01:51:30.973Z,11.70
2022-11-30T01:53:57.717Z,8.13
2022-11-30T01:56:24.271Z,8.57
2022-11-30T01:58:50.796Z,7.05
2022-11-30T02:01:17.166Z,7.82
2022-11-30T02:03:52.576Z,7.40
2022-11-30T02:06:19.006Z,9.65
2022-11-30T02:08:45.772Z,5.68
2022-11-30T02:11:13.717Z,5.82
2022-11-30T02:13:58.860Z,8.52
2022-11-30T02:16:31.333Z,5.30
2022-11-30T02:19:16.316Z,5.45
2022-11-30T02:21:51.640Z,4.82
2022-11-30T02:24:30.245Z,3.83
2022-11-30T02:27:07.856Z,4.82
2022-11-30T02:29:42.407Z,2.75
2022-11-30T02:32:29.004Z,7.07
2022-11-30T02:34:56.419Z,4.60
2022-11-30T02:37:23.561Z,4.97
2022-11-30T02:39:49.894Z,4.38
2022-11-30T02:42:16.320Z,5.55
2022-11-30T02:44:49.412Z,6.03
2022-11-30T02:47:22.599Z,3.95
2022-11-30T02:49:49.151Z,4.68
2022-11-30T02:52:16.247Z,3.75
2022-11-30T02:54:43.220Z,3.60
2022-11-30T02:57:09.694Z,4.93
2022-11-30T02:59:36.031Z,5.82
2022-11-30T03:02:02.395Z,4.25
2022-11-30T03:04:28.816Z,2.35
2022-11-30T03:06:55.161Z,2.08
2022-11-30T03:09:21.637Z,2.33
2022-11-30T03:11:48.030Z,2.20
2022-11-30T03:14:14.437Z,1.30
2022-11-30T03:16:40.898Z,5.85
2022-11-30T03:19:07.332Z,3.88
2022-11-30T03:21:33.645Z,3.13
2022-11-30T03:24:00.117Z,3.97
2022-11-30T03:26:26.471Z,3.45
2022-11-30T03:28:52.814Z,5.57
2022-11-30T03:31:19.352Z,4.18
2022-11-30T03:33:45.714Z,4.85
2022-11-30T03:36:12.388Z,3.55
2022-11-30T03:38:39.068Z,4.15
2022-11-30T03:41:10.868Z,3.33
2022-11-30T03:43:37.211Z,2.63
2022-11-30T03:46:04.152Z,2.85
2022-11-30T03:48:31.123Z,3.25
2022-11-30T03:50:57.882Z,1.55
2022-11-30T03:53:25.409Z,3.70
2022-11-30T03:55:55.928Z,3.15
2022-11-30T03:58:23.273Z,2.13
2022-11-30T04:00:49.806Z,3.47
2022-11-30T04:03:16.456Z,1.23
2022-11-30T04:05:43.048Z,0.82
2022-11-30T04:08:09.509Z,2.10
2022-11-30T04:10:35.887Z,1.48
2022-11-30T04:13:02.253Z,2.75
2022-11-30T04:15:28.783Z,3.42
2022-11-30T04:17:55.192Z,2.25
2022-11-30T04:20:21.597Z,1.20
2022-11-30T04:22:48.099Z,1.20
2022-11-30T04:25:14.548Z,0.55
2022-11-30T04:27:40.887Z,1.00
2022-11-30T04:30:07.586Z,2.63
2022-11-30T04:32:34.009Z,2.08
2022-11-30T04:35:00.346Z,2.42
2022-11-30T04:37:26.942Z,2.38
2022-11-30T04:39:53.456Z,6.32
2022-11-30T04:42:19.806Z,4.00
2022-11-30T04:44:46.740Z,2.45
2022-11-30T04:47:13.295Z,2.45
2022-11-30T04:49:39.684Z,5.63
2022-11-30T04:52:06.171Z,6.15
2022-11-30T04:54:32.554Z,3.70
2022-11-30T04:56:58.951Z,2.08
2022-11-30T04:59:25.484Z,3.00
2022-11-30T05:01:51.896Z,1.02
2022-11-30T05:04:18.407Z,1.45
2022-11-30T05:06:45.046Z,0.80
2022-11-30T05:09:11.466Z,1.38
2022-11-30T05:11:38.105Z,2.53
2022-11-30T05:14:05.645Z,2.08
2022-11-30T05:16:32.258Z,3.03
2022-11-30T05:18:58.818Z,1.38
2022-11-30T05:21:25.345Z,2.05
2022-11-30T05:23:52.333Z,1.83
2022-11-30T05:26:18.700Z,3.17
2022-11-30T05:28:45.191Z,2.08
2022-11-30T05:31:11.601Z,2.47
2022-11-30T05:33:38.029Z,1.95
2022-11-30T05:36:10.093Z,1.67
2022-11-30T05:38:37.213Z,5.43
2022-11-30T05:41:03.569Z,4.40
2022-11-30T05:43:30.138Z,2.47
2022-11-30T05:46:00.833Z,5.38
2022-11-30T05:48:27.410Z,2.08
2022-11-30T05:50:54.002Z,2.35
2022-11-30T05:53:21.438Z,4.68
2022-11-30T05:55:47.782Z,4.95
2022-11-30T05:58:14.289Z,4.82
2022-11-30T06:00:40.681Z,4.10
2022-11-30T06:03:07.315Z,6.90
2022-11-30T06:05:34.217Z,3.47
2022-11-30T06:08:00.859Z,4.28
2022-11-30T06:10:27.426Z,3.72
2022-11-30T06:12:53.886Z,3.90
2022-11-30T06:15:20.251Z,2.17
2022-11-30T06:17:46.688Z,3.42
2022-11-30T06:20:13.515Z,2.58
2022-11-30T06:22:39.950Z,4.35
2022-11-30T06:25:06.456Z,2.55
2022-11-30T06:27:32.968Z,4.82
2022-11-30T06:29:59.428Z,5.75
2022-11-30T06:32:25.791Z,6.45
2022-11-30T06:34:52.296Z,6.45
2022-11-30T06:37:18.780Z,7.65
2022-11-30T06:42:31.821Z,3.58
2022-11-30T06:44:58.393Z,4.32
2022-11-30T06:47:25.385Z,5.32
2022-11-30T06:49:51.844Z,5.85
2022-11-30T06:52:18.237Z,3.53
2022-11-30T06:54:44.903Z,7.80
2022-11-30T06:57:11.418Z,7.50
2022-11-30T06:59:42.155Z,4.13
2022-11-30T07:02:17.207Z,11.13
2022-11-30T07:04:44.743Z,8.23
2022-11-30T07:07:11.288Z,8.73
2022-11-30T07:09:37.634Z,7.63
2022-11-30T07:12:04.567Z,8.73
2022-11-30T07:14:31.112Z,4.50
2022-11-30T07:16:57.823Z,4.03
2022-11-30T07:19:24.184Z,6.90
2022-11-30T07:21:50.684Z,3.97
2022-11-30T07:24:35.545Z,4.40
2022-11-30T07:27:02.806Z,2.90
2022-11-30T07:29:29.426Z,3.63
2022-11-30T07:31:56.001Z,2.13
2022-11-30T07:34:22.848Z,1.85
2022-11-30T07:36:49.229Z,2.97
2022-11-30T07:39:16.023Z,2.85
2022-11-30T07:41:43.488Z,3.00
2022-11-30T07:44:10.266Z,2.22
2022-11-30T07:46:37.295Z,3.78
2022-11-30T07:49:04.412Z,3.70
2022-11-30T07:51:30.703Z,2.55
2022-11-30T07:53:57.294Z,3.40
2022-11-30T07:56:24.216Z,1.70
2022-11-30T07:58:51.860Z,2.70
2022-11-30T08:01:19.549Z,4.13
2022-11-30T08:03:46.023Z,2.72
2022-11-30T08:06:13.620Z,3.58
2022-11-30T08:08:41.294Z,5.10
2022-11-30T08:11:08.642Z,5.47
2022-11-30T08:13:35.219Z,7.68
2022-11-30T08:16:12.771Z,5.55
2022-11-30T08:18:39.415Z,4.22
2022-11-30T08:21:06.718Z,5.88
2022-11-30T08:23:37.767Z,7.55
2022-11-30T08:26:06.328Z,5.70
2022-11-30T08:28:33.285Z,7.05
2022-11-30T08:31:01.456Z,3.78
2022-11-30T08:33:30.800Z,2.80
2022-11-30T08:36:06.736Z,3.88
2022-11-30T08:38:33.096Z,3.67
2022-11-30T08:40:59.452Z,4.63
2022-11-30T08:43:25.918Z,3.10
2022-11-30T08:45:54.400Z,5.82
2022-11-30T08:48:23.552Z,6.07
2022-11-30T08:50:50.039Z,6.13
2022-11-30T08:53:16.374Z,4.88
2022-11-30T08:55:42.748Z,5.57
2022-11-30T08:58:09.201Z,4.88
2022-11-30T09:00:35.551Z,3.78
2022-11-30T09:03:01.949Z,3.15
2022-11-30T09:05:28.622Z,5.32
2022-11-30T09:07:55.033Z,6.38
2022-11-30T09:10:21.537Z,5.43
2022-11-30T09:12:48.009Z,5.90
2022-11-30T09:15:14.932Z,4.03
2022-11-30T09:17:41.276Z,4.63
2022-11-30T09:20:08.062Z,7.18
2022-11-30T09:22:34.523Z,4.28
2022-11-30T09:25:00.907Z,8.88
2022-11-30T09:27:30.436Z,6.85
2022-11-30T09:29:57.124Z,3.28
2022-11-30T09:32:23.614Z,4.10
2022-11-30T09:34:50.917Z,3.55
2022-11-30T09:37:17.697Z,6.57
2022-11-30T09:39:44.044Z,3.88
2022-11-30T09:42:10.558Z,2.90
2022-11-30T09:44:46.515Z,4.88
2022-11-30T09:47:13.184Z,3.85
2022-11-30T09:49:41.520Z,3.63
2022-11-30T09:52:14.304Z,6.38
2022-11-30T09:54:42.223Z,3.50
2022-11-30T09:57:27.642Z,6.03
2022-11-30T10:00:21.896Z,4.55
2022-11-30T10:02:52.285Z,4.25
2022-11-30T10:05:23.393Z,3.63
2022-11-30T10:08:08.879Z,1.92
2022-11-30T10:10:44.143Z,3.33
2022-11-30T10:13:34.252Z,2.67
2022-11-30T10:16:00.593Z,2.50
2022-11-30T10:18:45.700Z,3.00
2022-11-30T10:21:30.470Z,1.50
2022-11-30T10:23:59.943Z,1.55
2022-11-30T10:26:34.215Z,2.22
2022-11-30T10:29:20.204Z,3.25
2022-11-30T10:31:49.210Z,2.38
2022-11-30T10:34:22.793Z,2.08
2022-11-30T10:37:00.025Z,3.70
2022-11-30T10:39:29.780Z,4.55
2022-11-30T10:41:59.499Z,5.30
2022-11-30T10:44:31.951Z,4.85
2022-11-30T10:47:00.638Z,3.88
2022-11-30T10:49:28.593Z,6.00
2022-11-30T10:51:58.266Z,6.70
2022-11-30T10:54:24.705Z,5.55
2022-11-30T10:56:51.093Z,3.30
2022-11-30T10:59:20.200Z,3.80
2022-11-30T11:01:46.683Z,3.45
2022-11-30T11:04:13.187Z,4.43
2022-11-30T11:06:55.097Z,4.45
2022-11-30T11:09:24.430Z,3.90
2022-11-30T11:11:57.477Z,3.50
2022-11-30T11:14:26.227Z,3.58
2022-11-30T11:17:03.075Z,5.40
2022-11-30T11:19:29.431Z,3.17
2022-11-30T11:21:55.924Z,3.45
2022-11-30T11:24:25.866Z,7.30
2022-11-30T11:26:53.488Z,7.78
2022-11-30T11:29:33.699Z,5.60
2022-11-30T11:32:07.232Z,5.80
2022-11-30T11:34:34.851Z,6.85
2022-11-30T11:37:08.003Z,7.90
2022-11-30T11:39:34.423Z,4.28
2022-11-30T11:42:00.911Z,5.22
2022-11-30T11:44:28.060Z,4.13
2022-11-30T11:46:57.062Z,5.55
2022-11-30T11:49:25.877Z,5.55
2022-11-30T11:51:59.894Z,3.58
2022-11-30T11:54:33.214Z,5.57
2022-11-30T11:57:00.219Z,6.15
2022-11-30T11:59:45.706Z,7.50
2022-11-30T12:02:12.335Z,5.90
2022-11-30T12:04:52.913Z,4.63
2022-11-30T12:07:29.017Z,6.53
2022-11-30T12:09:59.491Z,4.43
2022-11-30T12:12:26.030Z,4.47
2022-11-30T12:14:52.948Z,3.90
2022-11-30T12:17:37.745Z,5.10
2022-11-30T12:20:13.903Z,3.70
2022-11-30T12:22:40.460Z,4.18
2022-11-30T12:25:12.988Z,3.72
2022-11-30T12:27:43.011Z,4.22
2022-11-30T12:30:32.184Z,5.05
2022-11-30T12:33:04.815Z,3.50
2022-11-30T12:35:51.446Z,2.13
2022-11-30T12:38:41.300Z,2.95
2022-11-30T12:41:14.248Z,4.80
2022-11-30T12:43:46.886Z,4.75
2022-11-30T12:46:32.032Z,5.60
2022-11-30T12:49:17.498Z,6.72
2022-11-30T12:51:50.029Z,5.45
2022-11-30T12:54:19.526Z,5.38
2022-11-30T12:56:53.044Z,6.47
2022-11-30T12:59:29.373Z,7.80
2022-11-30T13:02:01.835Z,10.00
2022-11-30T13:04:30.585Z,10.43
2022-11-30T13:07:08.455Z,11.85
2022-11-30T13:09:37.414Z,8.48
2022-11-30T13:12:07.295Z,9.93
2022-11-30T13:14:34.533Z,18.38
2022-11-30T13:17:02.248Z,15.23
2022-11-30T13:19:47.429Z,17.90
2022-11-30T13:22:23.600Z,14.73
2022-11-30T13:24:53.932Z,13.90
2022-11-30T13:27:24.513Z,18.75
2022-11-30T13:30:09.315Z,15.15
2022-11-30T13:35:28.365Z,13.52
2022-11-30T13:38:35.189Z,11.18
2022-11-30T13:40:52.980Z,11.48
2022-11-30T13:43:21.390Z,10.02
2022-11-30T13:45:47.781Z,15.75
2022-11-30T13:48:37.455Z,17.50
2022-11-30T13:51:04.392Z,11.43
2022-11-30T13:53:34.330Z,15.40
2022-11-30T13:56:02.417Z,15.07
2022-11-30T13:58:29.435Z,18.30
2022-11-30T14:01:21.255Z,16.13
2022-11-30T14:04:08.036Z,14.38
2022-11-30T14:06:55.568Z,13.57
2022-11-30T14:09:37.338Z,23.98
2022-11-30T14:12:22.403Z,15.77
2022-11-30T14:14:48.764Z,13.70
2022-11-30T14:17:26.687Z,9.43
2022-11-30T14:19:55.362Z,8.60
2022-11-30T14:22:23.363Z,6.90
2022-11-30T14:24:50.187Z,8.57
2022-11-30T14:27:18.453Z,10.20
2022-11-30T14:29:47.677Z,9.70
2022-11-30T14:32:21.173Z,11.27
2022-11-30T14:34:52.624Z,6.85
2022-11-30T14:37:31.329Z,8.95
2022-11-30T14:40:01.827Z,10.90
2022-11-30T14:42:29.968Z,12.48
2022-11-30T14:44:56.639Z,10.35
2022-11-30T14:47:23.148Z,13.88
2022-11-30T14:50:03.198Z,16.00
2022-11-30T14:52:38.049Z,11.07
2022-11-30T14:55:20.414Z,8.57
2022-11-30T14:57:50.906Z,12.30
2022-11-30T15:00:18.829Z,9.52
2022-11-30T15:02:45.518Z,10.15
2022-11-30T15:05:17.403Z,10.40
2022-11-30T15:07:44.376Z,8.32
2022-11-30T15:10:19.464Z,10.52
2022-11-30T15:12:46.064Z,8.93
2022-11-30T15:15:26.531Z,9.43
2022-11-30T15:17:57.603Z,11.85
2022-11-30T15:20:23.927Z,6.65
2022-11-30T15:22:50.410Z,7.40
2022-11-30T15:25:16.825Z,8.13
2022-11-30T15:27:43.360Z,9.35
2022-11-30T15:30:13.943Z,7.90
2022-11-30T15:32:40.285Z,6.80
2022-11-30T15:35:06.908Z,7.60
2022-11-30T15:37:35.300Z,11.75
2022-11-30T15:40:03.026Z,9.85
2022-11-30T15:42:31.136Z,8.30
2022-11-30T15:45:16.886Z,9.77
2022-11-30T15:47:43.354Z,8.25
2022-11-30T15:50:30.845Z,8.90
2022-11-30T15:53:02.077Z,8.05
2022-11-30T15:55:44.550Z,9.82
2022-11-30T15:58:26.326Z,7.20
2022-11-30T16:01:11.071Z,7.03
2022-11-30T16:03:55.735Z,9.18
2022-11-30T16:06:29.807Z,4.93
2022-11-30T16:08:57.108Z,6.13
2022-11-30T16:11:23.583Z,6.38
2022-11-30T16:13:50.182Z,6.55
2022-11-30T16:16:36.771Z,6.38
2022-11-30T16:19:03.260Z,7.90
2022-11-30T16:21:29.608Z,6.95
2022-11-30T16:23:56.054Z,7.50
2022-11-30T16:26:43.604Z,8.48
2022-11-30T16:29:08.856Z,7.65
2022-11-30T16:31:35.604Z,10.07
2022-11-30T16:34:02.013Z,5.57
2022-11-30T16:36:30.034Z,7.55
2022-11-30T16:38:57.416Z,5.20
2022-11-30T16:41:27.375Z,8.63
2022-11-30T16:43:54.924Z,6.18
2022-11-30T16:46:22.788Z,8.32
2022-11-30T16:48:49.499Z,6.25
2022-11-30T16:51:21.126Z,6.18
2022-11-30T16:53:47.691Z,7.43
2022-11-30T16:56:14.848Z,9.48
2022-11-30T16:58:41.475Z,6.78
2022-11-30T17:01:11.604Z,7.25
2022-11-30T17:03:38.307Z,7.20
2022-11-30T17:06:07.136Z,6.93
2022-11-30T17:08:33.711Z,8.07
2022-11-30T17:11:00.249Z,5.10
2022-11-30T17:13:26.692Z,5.18
2022-11-30T17:15:53.054Z,5.28
2022-11-30T17:18:19.367Z,5.70
2022-11-30T17:20:45.762Z,4.90
2022-11-30T17:23:12.220Z,5.88
2022-11-30T17:25:38.794Z,6.97
2022-11-30T17:28:05.173Z,5.93
2022-11-30T17:30:31.772Z,5.90
2022-11-30T17:32:58.151Z,5.93
2022-11-30T17:35:24.588Z,5.18
2022-11-30T17:37:52.895Z,8.07
2022-11-30T17:40:19.405Z,6.35
2022-11-30T17:42:45.703Z,5.93
2022-11-30T17:45:12.247Z,4.90
2022-11-30T17:47:38.694Z,5.30
2022-11-30T17:50:06.714Z,4.85
2022-11-30T17:52:33.190Z,6.28
2022-11-30T17:54:59.554Z,5.13
2022-11-30T17:57:25.956Z,6.07
2022-11-30T17:59:52.332Z,3.28
2022-11-30T18:02:18.777Z,5.22
2022-11-30T18:04:45.291Z,4.82
2022-11-30T18:07:11.932Z,6.28
2022-11-30T18:09:42.482Z,4.93
2022-11-30T18:12:09.940Z,5.83
2022-11-30T18:14:36.415Z,5.63
2022-11-30T18:17:02.834Z,4.63
2022-11-30T18:19:29.318Z,3.92
2022-11-30T18:21:55.651Z,6.25
2022-11-30T18:24:25.286Z,6.13
2022-11-30T18:26:52.263Z,5.05
2022-11-30T18:29:18.571Z,4.65
2022-11-30T18:31:45.226Z,5.18
2022-11-30T18:34:11.787Z,3.92
2022-11-30T18:36:38.094Z,6.63
2022-11-30T18:39:05.408Z,6.18
2022-11-30T18:41:31.751Z,6.00
2022-11-30T18:43:58.266Z,4.85
2022-11-30T18:46:25.023Z,6.38
2022-11-30T18:48:52.692Z,5.07
2022-11-30T18:51:20.035Z,8.00
2022-11-30T18:53:46.761Z,6.95
2022-11-30T18:56:14.562Z,8.20
2022-11-30T18:58:41.659Z,6.95
2022-11-30T19:01:09.260Z,8.85
2022-11-30T19:03:36.541Z,9.02
2022-11-30T19:06:04.598Z,11.90
2022-11-30T19:08:31.271Z,11.27
2022-11-30T19:11:04.998Z,7.85
2022-11-30T19:13:32.091Z,9.27
2022-11-30T19:16:02.847Z,9.70
2022-11-30T19:18:29.328Z,11.23
2022-11-30T19:20:55.749Z,8.65
2022-11-30T19:23:22.591Z,7.63
2022-11-30T19:25:49.083Z,5.60
2022-11-30T19:28:15.709Z,6.22
2022-11-30T19:30:42.434Z,6.80
2022-11-30T19:33:08.872Z,6.22
2022-11-30T19:35:35.320Z,9.20
2022-11-30T19:38:02.960Z,9.90
2022-11-30T19:40:30.038Z,7.55
2022-11-30T19:42:56.606Z,8.55
2022-11-30T19:45:23.337Z,7.97
2022-11-30T19:47:49.685Z,7.57
2022-11-30T19:50:16.096Z,8.82
2022-11-30T19:52:42.444Z,8.75
2022-11-30T19:55:09.020Z,8.27
2022-11-30T19:57:35.794Z,8.77
2022-11-30T20:00:06.265Z,7.63
2022-11-30T20:02:33.968Z,9.02
2022-11-30T20:05:00.838Z,6.97
2022-11-30T20:07:27.712Z,10.88
2022-11-30T20:09:54.126Z,8.63
2022-11-30T20:12:20.598Z,7.03
2022-11-30T20:14:50.157Z,6.32
2022-11-30T20:17:16.750Z,7.07
2022-11-30T20:19:43.310Z,9.80
2022-11-30T20:22:09.832Z,6.85
2022-11-30T20:24:36.823Z,9.88
2022-11-30T20:27:06.308Z,11.75
2022-11-30T20:29:32.780Z,7.65
2022-11-30T20:31:59.143Z,8.88
2022-11-30T20:34:29.836Z,8.15
2022-11-30T20:37:00.456Z,9.80
2022-11-30T20:39:26.899Z,6.72
2022-11-30T20:41:53.252Z,6.57
2022-11-30T20:44:19.685Z,10.65
2022-11-30T20:46:46.249Z,7.97
2022-11-30T20:49:14.444Z,5.93
2022-11-30T20:51:41.040Z,7.00
2022-11-30T20:54:07.565Z,8.85
2022-11-30T20:56:35.359Z,10.27
2022-11-30T20:59:02.312Z,9.60
2022-11-30T21:01:28.767Z,8.13
2022-11-30T21:03:55.168Z,10.77
2022-11-30T21:06:21.577Z,7.05
2022-11-30T21:08:48.062Z,8.02
2022-11-30T21:11:16.289Z,6.30
2022-11-30T21:13:44.088Z,6.75
2022-11-30T21:16:10.864Z,7.72
2022-11-30T21:18:38.152Z,5.63
2022-11-30T21:21:08.571Z,4.63
2022-11-30T21:23:35.012Z,3.67
2022-11-30T21:26:05.182Z,4.72
2022-11-30T21:28:37.657Z,3.88
2022-11-30T21:31:04.802Z,6.25
2022-11-30T21:33:31.265Z,5.40
2022-11-30T21:35:57.717Z,6.50
2022-11-30T21:38:24.210Z,5.70
2022-11-30T21:40:57.173Z,3.40
2022-11-30T21:43:23.535Z,5.38
2022-11-30T21:46:10.374Z,4.15
2022-11-30T21:48:37.513Z,2.67
2022-11-30T21:51:08.220Z,3.70
2022-11-30T21:53:38.944Z,4.28
2022-11-30T21:56:06.310Z,3.95
2022-11-30T21:58:34.684Z,4.72
2022-11-30T22:01:02.090Z,2.28
2022-11-30T22:03:28.937Z,3.40
2022-11-30T22:05:59.426Z,4.47
2022-11-30T22:08:25.888Z,4.03
2022-11-30T22:10:52.317Z,2.97
2022-11-30T22:13:18.797Z,3.72
2022-11-30T22:15:45.305Z,2.97
2022-11-30T22:18:11.743Z,4.90
2022-11-30T22:20:38.178Z,3.33
2022-11-30T22:23:04.680Z,2.67
2022-11-30T22:25:30.991Z,2.40
2022-11-30T22:27:57.331Z,1.88
2022-11-30T22:30:23.670Z,2.08
2022-11-30T22:32:49.980Z,1.83
2022-11-30T22:35:16.327Z,1.17
2022-11-30T22:37:42.723Z,2.50
2022-11-30T22:40:09.439Z,3.83
2022-11-30T22:42:35.765Z,2.97
2022-11-30T22:45:02.177Z,4.20
2022-11-30T22:47:28.524Z,3.30
2022-11-30T22:49:54.910Z,3.83
2022-11-30T22:52:36.414Z,1.98
2022-11-30T22:55:08.194Z,3.08
2022-11-30T22:57:34.926Z,2.35
2022-11-30T23:00:01.247Z,2.63
2022-11-30T23:02:27.566Z,2.53
2022-11-30T23:04:54.001Z,2.20
2022-11-30T23:07:20.368Z,1.45
2022-11-30T23:09:47.063Z,2.67
2022-11-30T23:12:24.875Z,3.08
2022-11-30T23:14:59.935Z,1.60
2022-11-30T23:17:26.369Z,1.02
2022-11-30T23:19:52.739Z,1.08
2022-11-30T23:22:19.119Z,1.52
2022-11-30T23:24:45.546Z,2.28
2022-11-30T23:27:11.951Z,1.05
2022-11-30T23:29:40.316Z,1.48
2022-11-30T23:32:08.242Z,1.00
2022-11-30T23:34:34.671Z,0.50
2022-11-30T23:37:01.089Z,1.50
2022-11-30T23:39:27.637Z,1.33
2022-11-30T23:41:53.965Z,1.40
2022-11-30T23:44:20.340Z,2.05
2022-11-30T23:46:47.220Z,1.70
2022-11-30T23:49:14.323Z,1.38
2022-11-30T23:51:41.066Z,0.93
2022-11-30T23:54:07.400Z,1.00
2022-11-30T23:56:33.744Z,1.23
2022-11-30T23:59:00.035Z,1.05
